createdAt,value
2022-10-24T00:00:05.207Z,44.9
2022-10-24T00:01:21.328Z,50.7
2022-10-24T00:02:38.432Z,44.3
2022-10-24T00:03:55.536Z,44.6
2022-10-24T00:05:12.640Z,45.9
2022-10-24T00:06:29.745Z,44.9
2022-10-24T00:07:46.847Z,44.9
2022-10-24T00:09:03.951Z,44.6
2022-10-24T00:10:21.055Z,51
2022-10-24T00:11:38.159Z,44.9
2022-10-24T00:12:55.263Z,45.2
2022-10-24T00:14:12.367Z,45.2
2022-10-24T00:15:29.471Z,46
2022-10-24T00:16:46.576Z,45.7
2022-10-24T00:18:02.696Z,46.2
2022-10-24T00:19:19.800Z,43.6
2022-10-24T00:20:36.905Z,45.4
2022-10-24T00:21:54.009Z,45.4
2022-10-24T00:23:11.113Z,45.4
2022-10-24T00:24:28.217Z,45.6
2022-10-24T00:25:45.321Z,44.3
2022-10-24T00:27:02.425Z,51.5
2022-10-24T00:28:19.530Z,48.9
2022-10-24T00:29:36.634Z,44.1
2022-10-24T00:30:53.738Z,44.7
2022-10-24T00:32:10.842Z,44.3
2022-10-24T00:33:27.946Z,44.6
2022-10-24T00:34:44.066Z,44.4
2022-10-24T00:36:01.170Z,44.7
2022-10-24T00:37:18.275Z,44.3
2022-10-24T00:38:35.379Z,46.5
2022-10-24T00:39:52.483Z,43.8
2022-10-24T00:41:09.587Z,43.8
2022-10-24T00:42:25.708Z,43.6
2022-10-24T00:43:42.812Z,44.6
2022-10-24T00:44:59.916Z,44.7
2022-10-24T00:46:17.020Z,44.9
2022-10-24T00:47:34.124Z,45.1
2022-10-24T00:48:51.228Z,44.4
2022-10-24T00:50:08.332Z,45.1
2022-10-24T00:51:25.437Z,44.1
2022-10-24T00:52:42.541Z,44.6
2022-10-24T00:53:59.645Z,44.7
2022-10-24T00:55:16.749Z,44.9
2022-10-24T00:56:33.853Z,44.3
2022-10-24T00:57:50.957Z,44.1
2022-10-24T00:59:07.078Z,53.1
2022-10-24T01:00:24.182Z,43.6
2022-10-24T01:01:41.286Z,57.2
2022-10-24T01:02:58.390Z,46.8
2022-10-24T01:04:15.494Z,55.9
2022-10-24T01:05:32.597Z,45.7
2022-10-24T01:06:49.701Z,45.1
2022-10-24T01:08:06.805Z,45.6
2022-10-24T01:09:23.909Z,43.1
2022-10-24T01:10:41.013Z,45.7
2022-10-24T01:11:58.117Z,44.4
2022-10-24T01:13:15.222Z,45.6
2022-10-24T01:14:32.326Z,44.7
2022-10-24T01:15:48.446Z,48.1
2022-10-24T01:17:05.550Z,44.1
2022-10-24T01:18:22.654Z,44.6
2022-10-24T01:19:39.758Z,44.3
2022-10-24T01:20:56.862Z,44.9
2022-10-24T01:22:13.967Z,44.9
2022-10-24T01:23:31.071Z,44.6
2022-10-24T01:24:48.175Z,56.2
2022-10-24T01:26:05.279Z,44.6
2022-10-24T01:27:22.383Z,44.4
2022-10-24T01:28:39.487Z,44.3
2022-10-24T01:29:56.592Z,45.2
2022-10-24T01:31:13.696Z,44.1
2022-10-24T01:32:29.816Z,43.9
2022-10-24T01:33:46.920Z,45.9
2022-10-24T01:35:04.024Z,67.6
2022-10-24T01:36:21.129Z,44.4
2022-10-24T01:37:38.233Z,44.9
2022-10-24T01:38:55.338Z,44.4
2022-10-24T01:40:12.442Z,46.2
2022-10-24T01:41:29.547Z,44.1
2022-10-24T01:42:46.651Z,45.2
2022-10-24T01:44:03.756Z,45.1
2022-10-24T01:45:20.860Z,48.6
2022-10-24T01:46:37.964Z,45.1
2022-10-24T01:47:55.069Z,50.4
2022-10-24T01:49:11.189Z,46.7
2022-10-24T01:50:28.293Z,48.6
2022-10-24T01:51:45.397Z,43.6
2022-10-24T01:53:02.501Z,48.9
2022-10-24T01:54:19.606Z,48.8
2022-10-24T01:55:36.710Z,47.8
2022-10-24T01:56:53.814Z,46
2022-10-24T01:58:10.918Z,45.9
2022-10-24T01:59:28.022Z,44.1
2022-10-24T02:00:45.127Z,43.6
2022-10-24T02:02:02.232Z,45.2
2022-10-24T02:03:19.336Z,46
2022-10-24T02:04:36.440Z,46
2022-10-24T02:05:52.560Z,47.6
2022-10-24T02:07:09.664Z,46.7
2022-10-24T02:08:26.769Z,47.2
2022-10-24T02:09:43.873Z,44.7
2022-10-24T02:11:00.977Z,59.6
2022-10-24T02:12:18.081Z,44.1
2022-10-24T02:13:35.186Z,64.6
2022-10-24T02:14:52.290Z,46.7
2022-10-24T02:16:09.394Z,43.8
2022-10-24T02:17:26.498Z,44.7
2022-10-24T02:18:43.602Z,44.9
2022-10-24T02:20:00.706Z,63
2022-10-24T02:21:17.810Z,44.9
2022-10-24T02:22:33.931Z,45.6
2022-10-24T02:23:51.035Z,46
2022-10-24T02:25:08.139Z,46.7
2022-10-24T02:26:25.243Z,64.4
2022-10-24T02:27:42.347Z,50.9
2022-10-24T02:28:59.451Z,59.2
2022-10-24T02:30:16.556Z,52.3
2022-10-24T02:31:33.660Z,53.3
2022-10-24T02:32:50.764Z,45.9
2022-10-24T02:34:07.868Z,56.3
2022-10-24T02:35:24.973Z,55.2
2022-10-24T02:36:42.077Z,60.2
2022-10-24T02:37:59.181Z,49.7
2022-10-24T02:39:15.301Z,46.7
2022-10-24T02:40:32.405Z,48.8
2022-10-24T02:41:49.509Z,46.4
2022-10-24T02:43:06.614Z,50.2
2022-10-24T02:44:23.718Z,52
2022-10-24T02:45:40.822Z,46.2
2022-10-24T02:46:57.926Z,57.6
2022-10-24T02:48:15.030Z,61.3
2022-10-24T02:49:32.134Z,47.5
2022-10-24T02:50:49.239Z,61.5
2022-10-24T02:52:06.343Z,52.6
2022-10-24T02:53:23.447Z,46.2
2022-10-24T02:54:40.552Z,47.6
2022-10-24T02:55:56.672Z,66
2022-10-24T02:57:13.776Z,50.7
2022-10-24T02:58:30.880Z,47.2
2022-10-24T02:59:47.984Z,48.8
2022-10-24T03:01:05.088Z,48.1
2022-10-24T03:02:22.192Z,46.8
2022-10-24T03:03:39.297Z,69.7
2022-10-24T03:04:56.401Z,48.9
2022-10-24T03:06:13.505Z,53.4
2022-10-24T03:07:30.609Z,47.2
2022-10-24T03:08:47.713Z,58.9
2022-10-24T03:10:04.818Z,50.1
2022-10-24T03:11:21.922Z,50.9
2022-10-24T03:12:38.042Z,73.3
2022-10-24T03:13:55.146Z,59.2
2022-10-24T03:15:12.250Z,67
2022-10-24T03:16:29.355Z,49.3
2022-10-24T03:17:46.459Z,65.2
2022-10-24T03:19:03.563Z,66.5
2022-10-24T03:20:20.667Z,60.9
2022-10-24T03:21:37.771Z,54.9
2022-10-24T03:22:54.875Z,64.1
2022-10-24T03:24:11.979Z,61.7
2022-10-24T03:25:29.083Z,57.8
2022-10-24T03:26:46.188Z,61.7
2022-10-24T03:28:03.293Z,56.7
2022-10-24T03:29:19.413Z,55.5
2022-10-24T03:30:36.517Z,54.7
2022-10-24T03:31:53.621Z,59.6
2022-10-24T03:33:10.725Z,67.5
2022-10-24T03:34:27.829Z,63
2022-10-24T03:35:44.933Z,64.6
2022-10-24T03:37:02.037Z,67.9
2022-10-24T03:38:19.142Z,61.7
2022-10-24T03:39:36.246Z,61.7
2022-10-24T03:40:53.350Z,67.5
2022-10-24T03:42:10.454Z,60.2
2022-10-24T03:43:27.558Z,64.9
2022-10-24T03:44:44.662Z,63.8
2022-10-24T03:46:00.782Z,68.1
2022-10-24T03:47:17.886Z,62.8
2022-10-24T03:48:34.990Z,68.1
2022-10-24T03:49:52.095Z,62.6
2022-10-24T03:51:09.199Z,59.1
2022-10-24T03:52:26.303Z,67.1
2022-10-24T03:53:43.407Z,56.5
2022-10-24T03:55:00.511Z,65.7
2022-10-24T03:56:17.615Z,65.7
2022-10-24T03:57:34.719Z,51.8
2022-10-24T03:58:51.823Z,63.4
2022-10-24T04:00:08.928Z,60.9
2022-10-24T04:01:26.032Z,55.4
2022-10-24T04:02:42.152Z,63.6
2022-10-24T04:03:59.256Z,59.2
2022-10-24T04:05:16.360Z,66.2
2022-10-24T04:06:33.465Z,67.6
2022-10-24T04:07:50.569Z,61.8
2022-10-24T04:09:07.673Z,59.7
2022-10-24T04:10:24.777Z,63.1
2022-10-24T04:11:41.881Z,63.8
2022-10-24T04:12:58.985Z,49.4
2022-10-24T04:14:16.090Z,62.6
2022-10-24T04:15:33.194Z,53.4
2022-10-24T04:16:50.298Z,50.5
2022-10-24T04:18:07.402Z,67.3
2022-10-24T04:19:23.522Z,66
2022-10-24T04:20:40.626Z,68.8
2022-10-24T04:21:57.730Z,67.8
2022-10-24T04:23:14.835Z,61.2
2022-10-24T04:24:31.939Z,58.3
2022-10-24T04:25:49.043Z,60.7
2022-10-24T04:27:06.147Z,59.4
2022-10-24T04:28:23.252Z,62.1
2022-10-24T04:29:40.356Z,58.9
2022-10-24T04:30:57.460Z,65.7
2022-10-24T04:32:14.564Z,66.5
2022-10-24T04:33:31.669Z,67.5
2022-10-24T04:34:48.773Z,58.1
2022-10-24T04:36:04.893Z,61.2
2022-10-24T04:37:21.998Z,63.3
2022-10-24T04:38:39.102Z,65.9
2022-10-24T04:39:56.206Z,70
2022-10-24T04:41:13.310Z,59.9
2022-10-24T04:42:30.414Z,64.7
2022-10-24T04:43:47.518Z,56
2022-10-24T04:45:04.623Z,67.9
2022-10-24T04:46:21.727Z,61.8
2022-10-24T04:47:38.831Z,67.8
2022-10-24T04:48:55.936Z,67
2022-10-24T04:50:13.040Z,69.9
2022-10-24T04:51:30.144Z,66.8
2022-10-24T04:52:46.265Z,65.4
2022-10-24T04:54:03.370Z,63.8
2022-10-24T04:55:20.474Z,59.2
2022-10-24T04:56:37.578Z,58.1
2022-10-24T04:57:54.683Z,69.9
2022-10-24T04:59:11.787Z,54.1
2022-10-24T05:00:27.907Z,69.2
2022-10-24T05:01:45.012Z,76.6
2022-10-24T05:03:02.116Z,73.1
2022-10-24T05:04:19.220Z,63.1
2022-10-24T05:05:36.324Z,63
2022-10-24T05:06:53.428Z,62
2022-10-24T05:08:10.533Z,68.1
2022-10-24T05:09:27.637Z,59.7
2022-10-24T05:10:44.741Z,62.1
2022-10-24T05:12:01.846Z,64.2
2022-10-24T05:13:18.950Z,57.5
2022-10-24T05:14:36.054Z,67
2022-10-24T05:15:53.158Z,65.4
2022-10-24T05:17:09.278Z,62.1
2022-10-24T05:18:26.383Z,61
2022-10-24T05:19:43.487Z,64.9
2022-10-24T05:21:00.591Z,57.3
2022-10-24T05:22:17.695Z,56.8
2022-10-24T05:23:34.800Z,65.9
2022-10-24T05:24:51.905Z,60.7
2022-10-24T05:26:09.009Z,67.6
2022-10-24T05:27:26.113Z,67.5
2022-10-24T05:28:43.218Z,64.2
2022-10-24T05:30:00.323Z,64.4
2022-10-24T05:31:17.428Z,59.4
2022-10-24T05:32:34.532Z,65.4
2022-10-24T05:33:50.652Z,67.8
2022-10-24T05:35:07.757Z,68.9
2022-10-24T05:36:24.861Z,62
2022-10-24T05:37:41.965Z,64.1
2022-10-24T05:38:59.069Z,66.2
2022-10-24T05:40:16.173Z,67.5
2022-10-24T05:41:33.278Z,65.7
2022-10-24T05:42:50.382Z,66.5
2022-10-24T05:44:07.486Z,67
2022-10-24T05:45:24.590Z,60.1
2022-10-24T05:46:41.694Z,65
2022-10-24T05:47:58.798Z,57.8
2022-10-24T05:49:15.903Z,65.4
2022-10-24T05:50:32.023Z,64.6
2022-10-24T05:51:49.127Z,68.1
2022-10-24T05:53:06.232Z,64.4
2022-10-24T05:54:23.336Z,67
2022-10-24T05:55:40.440Z,71.8
2022-10-24T05:56:57.544Z,66.2
2022-10-24T05:58:14.648Z,70.5
2022-10-24T05:59:31.752Z,68.3
2022-10-24T06:00:48.856Z,69.6
2022-10-24T06:02:05.960Z,68.4
2022-10-24T06:03:23.065Z,63.1
2022-10-24T06:04:40.169Z,66.8
2022-10-24T06:05:57.273Z,67
2022-10-24T06:07:13.393Z,68.3
2022-10-24T06:08:30.498Z,71.5
2022-10-24T06:09:47.602Z,69.6
2022-10-24T06:11:04.706Z,64.9
2022-10-24T06:12:21.810Z,66
2022-10-24T06:13:38.914Z,65
2022-10-24T06:14:56.019Z,63.3
2022-10-24T06:16:13.123Z,63.4
2022-10-24T06:17:30.227Z,58.6
2022-10-24T06:18:47.331Z,64.4
2022-10-24T06:20:04.435Z,58.3
2022-10-24T06:21:21.540Z,69.2
2022-10-24T06:22:38.644Z,58.4
2022-10-24T06:23:54.764Z,66.2
2022-10-24T06:25:11.868Z,68.3
2022-10-24T06:26:28.973Z,65.2
2022-10-24T06:27:46.077Z,66.2
2022-10-24T06:29:03.181Z,59.2
2022-10-24T06:30:20.285Z,60.9
2022-10-24T06:31:37.390Z,65.4
2022-10-24T06:32:54.494Z,60.5
2022-10-24T06:34:11.598Z,58.1
2022-10-24T06:35:28.702Z,62.1
2022-10-24T06:36:45.807Z,58.9
2022-10-24T06:38:02.911Z,58.9
2022-10-24T06:39:20.016Z,65.5
2022-10-24T06:40:36.134Z,69.4
2022-10-24T06:41:53.238Z,59.7
2022-10-24T06:43:10.342Z,64.9
2022-10-24T06:44:27.447Z,62.3
2022-10-24T06:45:44.551Z,64.2
2022-10-24T06:47:01.655Z,60.5
2022-10-24T06:48:18.760Z,62.1
2022-10-24T06:49:35.865Z,61.5
2022-10-24T06:50:52.969Z,63.4
2022-10-24T06:52:10.074Z,59.7
2022-10-24T06:53:27.178Z,58.3
2022-10-24T06:54:44.283Z,64.4
2022-10-24T06:56:01.387Z,60.9
2022-10-24T06:57:17.508Z,66.3
2022-10-24T06:58:34.612Z,58.9
2022-10-24T06:59:51.717Z,62.1
2022-10-24T07:01:08.821Z,58.9
2022-10-24T07:02:25.925Z,63.8
2022-10-24T07:03:43.030Z,60.1
2022-10-24T07:05:00.134Z,63.1
2022-10-24T07:06:17.238Z,62.8
2022-10-24T07:07:34.342Z,67.3
2022-10-24T07:08:51.447Z,61.8
2022-10-24T07:10:08.552Z,61.3
2022-10-24T07:11:25.655Z,64.7
2022-10-24T07:12:42.759Z,65.5
2022-10-24T07:13:58.879Z,63
2022-10-24T07:15:15.983Z,52
2022-10-24T07:16:33.087Z,61.8
2022-10-24T07:17:50.191Z,61.3
2022-10-24T07:19:07.294Z,65.2
2022-10-24T07:20:24.398Z,56.8
2022-10-24T07:21:41.502Z,56
2022-10-24T07:22:58.606Z,62.5
2022-10-24T07:24:15.710Z,66.8
2022-10-24T07:25:32.814Z,61.2
2022-10-24T07:26:49.917Z,63.8
2022-10-24T07:28:07.021Z,56.7
2022-10-24T07:29:24.125Z,56.5
2022-10-24T07:30:40.243Z,55.9
2022-10-24T07:31:57.347Z,62.5
2022-10-24T07:33:14.451Z,63.4
2022-10-24T07:34:31.555Z,61
2022-10-24T07:35:48.659Z,58.3
2022-10-24T07:37:05.763Z,59.1
2022-10-24T07:38:22.867Z,66.2
2022-10-24T07:39:39.970Z,60.7
2022-10-24T07:40:57.074Z,59.4
2022-10-24T07:42:14.178Z,67.5
2022-10-24T07:43:31.282Z,56.3
2022-10-24T07:44:48.386Z,61
2022-10-24T07:46:05.490Z,62
2022-10-24T07:47:21.610Z,56.2
2022-10-24T07:48:38.714Z,64.7
2022-10-24T07:49:55.818Z,66.3
2022-10-24T07:51:12.922Z,62.1
2022-10-24T07:52:30.025Z,61
2022-10-24T07:53:47.129Z,55.5
2022-10-24T07:55:04.233Z,63.4
2022-10-24T07:56:21.337Z,63.9
2022-10-24T07:57:38.441Z,66.7
2022-10-24T07:58:55.545Z,62.1
2022-10-24T08:00:12.649Z,58.6
2022-10-24T08:01:29.753Z,61
2022-10-24T08:02:46.857Z,59.7
2022-10-24T08:04:02.977Z,67.6
2022-10-24T08:05:20.081Z,62.1
2022-10-24T08:06:37.186Z,61
2022-10-24T08:07:54.290Z,58.8
2022-10-24T08:09:11.394Z,65.7
2022-10-24T08:10:28.498Z,58.1
2022-10-24T08:11:45.602Z,63.9
2022-10-24T08:13:02.706Z,58
2022-10-24T08:14:19.810Z,62.3
2022-10-24T08:15:36.914Z,53.9
2022-10-24T08:16:54.019Z,61.7
2022-10-24T08:18:11.123Z,58.4
2022-10-24T08:19:28.227Z,58.1
2022-10-24T08:20:44.347Z,61
2022-10-24T08:22:01.451Z,60.7
2022-10-24T08:23:18.556Z,61.8
2022-10-24T08:24:35.660Z,64.1
2022-10-24T08:25:52.764Z,67.1
2022-10-24T08:27:09.868Z,58.8
2022-10-24T08:28:26.973Z,63.3
2022-10-24T08:29:44.077Z,65.5
2022-10-24T08:31:01.181Z,61.7
2022-10-24T08:32:18.285Z,62.6
2022-10-24T08:33:35.389Z,56.7
2022-10-24T08:34:52.493Z,61.8
2022-10-24T08:36:09.597Z,65.2
2022-10-24T08:37:25.718Z,66.7
2022-10-24T08:38:42.822Z,61.3
2022-10-24T08:39:59.926Z,60.4
2022-10-24T08:41:17.030Z,60.7
2022-10-24T08:42:34.134Z,61
2022-10-24T08:43:51.238Z,59.4
2022-10-24T08:45:08.342Z,63.3
2022-10-24T08:46:25.446Z,60.9
2022-10-24T08:47:42.551Z,60.5
2022-10-24T08:48:59.655Z,61.7
2022-10-24T08:50:16.759Z,56.3
2022-10-24T08:51:33.863Z,61.5
2022-10-24T08:52:50.967Z,63
2022-10-24T08:54:07.088Z,64.9
2022-10-24T08:55:24.192Z,62.5
2022-10-24T08:56:41.296Z,62.5
2022-10-24T08:57:58.400Z,61.7
2022-10-24T08:59:15.504Z,62.3
2022-10-24T09:00:32.608Z,71.5
2022-10-24T09:01:49.713Z,63.3
2022-10-24T09:03:06.817Z,60.1
2022-10-24T09:04:23.921Z,63.9
2022-10-24T09:05:41.025Z,62.3
2022-10-24T09:06:58.129Z,58
2022-10-24T09:08:15.233Z,65.2
2022-10-24T09:09:32.337Z,62
2022-10-24T09:10:48.457Z,61.8
2022-10-24T09:12:05.562Z,56
2022-10-24T09:13:22.666Z,62.6
2022-10-24T09:14:39.770Z,59.2
2022-10-24T09:15:56.874Z,58.1
2022-10-24T09:17:13.978Z,56.7
2022-10-24T09:18:30.098Z,59.9
2022-10-24T09:19:47.202Z,58
2022-10-24T09:21:04.305Z,62.6
2022-10-24T09:22:21.409Z,64.4
2022-10-24T09:23:38.513Z,57.8
2022-10-24T09:24:55.618Z,72.6
2022-10-24T09:26:12.721Z,65.4
2022-10-24T09:27:29.825Z,60.7
2022-10-24T09:28:46.929Z,63.1
2022-10-24T09:30:04.033Z,72.6
2022-10-24T09:31:21.137Z,58.6
2022-10-24T09:32:38.241Z,60.2
2022-10-24T09:33:55.345Z,66.2
2022-10-24T09:35:11.465Z,63.1
2022-10-24T09:36:28.570Z,66.5
2022-10-24T09:37:45.674Z,57.2
2022-10-24T09:39:02.778Z,63.3
2022-10-24T09:40:19.883Z,61.8
2022-10-24T09:41:36.987Z,61.3
2022-10-24T09:42:54.091Z,66
2022-10-24T09:44:11.195Z,53.9
2022-10-24T09:45:28.299Z,61.2
2022-10-24T09:46:45.403Z,58.1
2022-10-24T09:48:02.508Z,63.6
2022-10-24T09:49:19.611Z,64.6
2022-10-24T09:50:36.715Z,71.2
2022-10-24T09:51:52.835Z,58.1
2022-10-24T09:53:09.939Z,60.7
2022-10-24T09:54:27.043Z,60.5
2022-10-24T09:55:44.147Z,60.9
2022-10-24T09:57:01.250Z,63.4
2022-10-24T09:58:18.354Z,59.7
2022-10-24T09:59:35.458Z,59.9
2022-10-24T10:00:52.562Z,62.5
2022-10-24T10:02:09.666Z,72.9
2022-10-24T10:03:26.770Z,74.4
2022-10-24T10:04:43.873Z,56.7
2022-10-24T10:06:00.977Z,62.3
2022-10-24T10:07:18.081Z,60.1
2022-10-24T10:08:34.201Z,53.3
2022-10-24T10:09:51.305Z,61.2
2022-10-24T10:11:08.409Z,60.5
2022-10-24T10:12:25.513Z,59.4
2022-10-24T10:13:42.617Z,65.4
2022-10-24T10:14:59.720Z,58.6
2022-10-24T10:16:16.824Z,56.8
2022-10-24T10:17:33.928Z,63.9
2022-10-24T10:18:51.032Z,61.2
2022-10-24T10:20:08.136Z,61.7
2022-10-24T10:21:25.240Z,57.2
2022-10-24T10:22:42.344Z,61.7
2022-10-24T10:23:59.448Z,52.3
2022-10-24T10:25:15.566Z,63.9
2022-10-24T10:26:32.669Z,61.2
2022-10-24T10:27:49.773Z,60.5
2022-10-24T10:29:06.877Z,62.5
2022-10-24T10:30:23.981Z,63
2022-10-24T10:31:41.085Z,65.5
2022-10-24T10:32:58.189Z,57.8
2022-10-24T10:34:15.291Z,59.2
2022-10-24T10:35:32.395Z,61
2022-10-24T10:36:49.498Z,62.1
2022-10-24T10:38:06.602Z,62.6
2022-10-24T10:39:23.706Z,64.2
2022-10-24T10:40:40.810Z,59.9
2022-10-24T10:41:56.930Z,64.7
2022-10-24T10:43:14.034Z,66.8
2022-10-24T10:44:31.138Z,60.1
2022-10-24T10:45:48.242Z,60.9
2022-10-24T10:47:05.346Z,55.1
2022-10-24T10:48:22.450Z,59.4
2022-10-24T10:49:39.554Z,60.2
2022-10-24T10:50:56.658Z,65.5
2022-10-24T10:52:13.762Z,58.8
2022-10-24T10:53:30.866Z,60.4
2022-10-24T10:54:47.970Z,59.9
2022-10-24T10:56:05.074Z,58
2022-10-24T10:57:22.178Z,59.7
2022-10-24T10:58:38.298Z,56.5
2022-10-24T10:59:55.402Z,62.1
2022-10-24T11:01:12.506Z,59.7
2022-10-24T11:02:29.610Z,59.7
2022-10-24T11:03:46.714Z,58.1
2022-10-24T11:05:03.819Z,60.5
2022-10-24T11:06:20.923Z,60.7
2022-10-24T11:07:38.027Z,58
2022-10-24T11:08:55.131Z,63
2022-10-24T11:10:12.235Z,60.5
2022-10-24T11:11:29.339Z,58.6
2022-10-24T11:12:46.443Z,56.7
2022-10-24T11:14:03.547Z,56.7
2022-10-24T11:15:19.667Z,58.1
2022-10-24T11:16:36.772Z,63.1
2022-10-24T11:17:53.876Z,62.5
2022-10-24T11:19:10.980Z,60.4
2022-10-24T11:20:28.084Z,56.3
2022-10-24T11:21:45.188Z,63.1
2022-10-24T11:23:02.292Z,56.8
2022-10-24T11:24:19.396Z,61.7
2022-10-24T11:25:36.500Z,54.6
2022-10-24T11:26:53.604Z,55.2
2022-10-24T11:28:10.708Z,61.7
2022-10-24T11:29:27.812Z,60.2
2022-10-24T11:30:44.916Z,65
2022-10-24T11:32:01.036Z,63.3
2022-10-24T11:33:18.140Z,61.7
2022-10-24T11:34:35.244Z,60.7
2022-10-24T11:35:52.348Z,61.7
2022-10-24T11:37:09.453Z,57.3
2022-10-24T11:38:26.557Z,59.9
2022-10-24T11:39:43.661Z,60.2
2022-10-24T11:41:00.765Z,58.8
2022-10-24T11:42:17.869Z,65.7
2022-10-24T11:43:34.973Z,64.6
2022-10-24T11:44:52.078Z,60.9
2022-10-24T11:46:09.182Z,64.4
2022-10-24T11:47:26.286Z,63.4
2022-10-24T11:48:42.406Z,64.2
2022-10-24T11:49:59.511Z,63.6
2022-10-24T11:51:16.615Z,67
2022-10-24T11:52:33.719Z,61.3
2022-10-24T11:53:50.824Z,63.8
2022-10-24T11:55:07.928Z,61.2
2022-10-24T11:56:25.032Z,58.3
2022-10-24T11:57:42.136Z,65.7
2022-10-24T11:58:59.240Z,64.4
2022-10-24T12:00:16.345Z,63.4
2022-10-24T12:01:33.449Z,59.7
2022-10-24T12:02:50.553Z,61.5
2022-10-24T12:04:07.657Z,63.8
2022-10-24T12:05:23.778Z,56.8
2022-10-24T12:06:40.882Z,56
2022-10-24T12:07:57.986Z,57.2
2022-10-24T12:09:15.090Z,62.1
2022-10-24T12:10:32.194Z,63.4
2022-10-24T12:11:49.299Z,60.7
2022-10-24T12:13:06.403Z,61.3
2022-10-24T12:14:23.507Z,68.8
2022-10-24T12:15:40.611Z,60.2
2022-10-24T12:16:57.716Z,60.2
2022-10-24T12:18:14.820Z,56.5
2022-10-24T12:19:31.924Z,63.1
2022-10-24T12:20:49.028Z,64.7
2022-10-24T12:22:05.148Z,67.8
2022-10-24T12:23:22.253Z,56.7
2022-10-24T12:24:39.357Z,61.8
2022-10-24T12:25:56.461Z,64.1
2022-10-24T12:27:13.565Z,56.8
2022-10-24T12:28:30.670Z,62.1
2022-10-24T12:29:47.774Z,61
2022-10-24T12:31:04.878Z,55.7
2022-10-24T12:32:21.982Z,56.7
2022-10-24T12:33:39.087Z,58.3
2022-10-24T12:34:56.191Z,61.8
2022-10-24T12:36:13.295Z,63.4
2022-10-24T12:37:30.399Z,61.7
2022-10-24T12:38:46.520Z,53.8
2022-10-24T12:40:03.624Z,62.8
2022-10-24T12:41:20.728Z,59.4
2022-10-24T12:42:37.832Z,67.5
2022-10-24T12:43:54.936Z,55.2
2022-10-24T12:45:12.041Z,64.2
2022-10-24T12:46:29.145Z,58.1
2022-10-24T12:47:46.249Z,62
2022-10-24T12:49:03.353Z,59.1
2022-10-24T12:50:20.457Z,57.5
2022-10-24T12:51:37.562Z,61.5
2022-10-24T12:52:54.666Z,60.1
2022-10-24T12:54:11.770Z,54.1
2022-10-24T12:55:27.890Z,59.9
2022-10-24T12:56:44.995Z,60.9
2022-10-24T12:58:02.099Z,62.1
2022-10-24T12:59:19.203Z,57.5
2022-10-24T13:00:36.307Z,58.6
2022-10-24T13:01:53.411Z,58.9
2022-10-24T13:03:10.515Z,67.8
2022-10-24T13:04:27.620Z,66
2022-10-24T13:05:44.724Z,59.6
2022-10-24T13:07:01.828Z,64.7
2022-10-24T13:08:18.933Z,61.2
2022-10-24T13:09:36.037Z,60.5
2022-10-24T13:10:53.141Z,61.2
2022-10-24T13:12:09.261Z,60.7
2022-10-24T13:13:26.365Z,56.2
2022-10-24T13:14:43.471Z,62
2022-10-24T13:16:00.575Z,65
2022-10-24T13:17:17.679Z,60.5
2022-10-24T13:18:34.783Z,59.4
2022-10-24T13:19:51.888Z,58.8
2022-10-24T13:21:08.992Z,67.1
2022-10-24T13:22:26.096Z,60.2
2022-10-24T13:23:43.200Z,61.3
2022-10-24T13:25:00.304Z,57
2022-10-24T13:26:17.408Z,63.1
2022-10-24T13:27:34.512Z,69.6
2022-10-24T13:28:50.632Z,66
2022-10-24T13:30:07.737Z,61.3
2022-10-24T13:31:24.841Z,60.4
2022-10-24T13:32:41.945Z,59.4
2022-10-24T13:33:59.049Z,61.2
2022-10-24T13:35:16.153Z,63
2022-10-24T13:36:32.273Z,60.2
2022-10-24T13:37:49.377Z,63.6
2022-10-24T13:39:06.480Z,63.4
2022-10-24T13:40:23.584Z,55.7
2022-10-24T13:41:40.689Z,60.4
2022-10-24T13:42:57.792Z,64.7
2022-10-24T13:44:14.896Z,62.6
2022-10-24T13:45:32.000Z,64.7
2022-10-24T13:46:49.104Z,64.6
2022-10-24T13:48:06.208Z,58.6
2022-10-24T13:49:23.312Z,61.8
2022-10-24T13:50:40.417Z,63.4
2022-10-24T13:51:57.521Z,63.8
2022-10-24T13:53:13.641Z,61.7
2022-10-24T13:54:30.745Z,61
2022-10-24T13:55:47.849Z,61.3
2022-10-24T13:57:04.953Z,63.1
2022-10-24T13:58:22.057Z,63
2022-10-24T13:59:39.161Z,61
2022-10-24T14:00:56.264Z,64.7
2022-10-24T14:02:13.368Z,62.8
2022-10-24T14:03:30.473Z,68.6
2022-10-24T14:04:47.577Z,60.9
2022-10-24T14:06:04.680Z,60.9
2022-10-24T14:07:21.784Z,60.9
2022-10-24T14:08:38.888Z,66.5
2022-10-24T14:09:55.008Z,59.7
2022-10-24T14:11:12.112Z,63.1
2022-10-24T14:12:29.216Z,64.7
2022-10-24T14:13:46.320Z,63
2022-10-24T14:15:03.425Z,59.7
2022-10-24T14:16:20.529Z,61.8
2022-10-24T14:17:37.633Z,61.2
2022-10-24T14:18:54.737Z,61.7
2022-10-24T14:20:11.841Z,63.8
2022-10-24T14:21:28.946Z,64.4
2022-10-24T14:22:46.050Z,65.5
2022-10-24T14:24:03.154Z,64.7
2022-10-24T14:25:20.258Z,64.4
2022-10-24T14:26:36.379Z,60.7
2022-10-24T14:27:53.483Z,59.2
2022-10-24T14:29:10.587Z,66.5
2022-10-24T14:30:27.692Z,63.8
2022-10-24T14:31:44.796Z,66.8
2022-10-24T14:33:01.900Z,68.3
2022-10-24T14:34:19.004Z,61.5
2022-10-24T14:35:36.108Z,67.3
2022-10-24T14:36:53.213Z,67.6
2022-10-24T14:38:10.317Z,63.9
2022-10-24T14:39:27.421Z,63.8
2022-10-24T14:40:44.525Z,62.8
2022-10-24T14:42:01.630Z,63.4
2022-10-24T14:43:17.750Z,65.7
2022-10-24T14:44:34.854Z,62.6
2022-10-24T14:45:51.958Z,59.7
2022-10-24T14:47:09.062Z,62.8
2022-10-24T14:48:26.167Z,63.1
2022-10-24T14:49:43.271Z,64.2
2022-10-24T14:51:00.375Z,64.9
2022-10-24T14:52:17.479Z,63.8
2022-10-24T14:53:34.584Z,61.7
2022-10-24T14:54:51.686Z,70.8
2022-10-24T14:56:08.790Z,60.4
2022-10-24T14:57:25.894Z,62.1
2022-10-24T14:58:42.999Z,60.2
2022-10-24T14:59:59.119Z,60.7
2022-10-24T15:01:16.223Z,63.4
2022-10-24T15:02:33.327Z,64.2
2022-10-24T15:03:50.431Z,64.7
2022-10-24T15:05:07.535Z,61.7
2022-10-24T15:06:24.639Z,64.4
2022-10-24T15:07:41.743Z,68.4
2022-10-24T15:08:58.847Z,61.3
2022-10-24T15:10:15.952Z,68.6
2022-10-24T15:11:33.056Z,68.1
2022-10-24T15:12:50.160Z,61.2
2022-10-24T15:14:07.264Z,60.9
2022-10-24T15:15:24.369Z,61.7
2022-10-24T15:16:40.489Z,64.2
2022-10-24T15:17:57.593Z,68.9
2022-10-24T15:19:14.697Z,62.1
2022-10-24T15:20:31.801Z,64.9
2022-10-24T15:21:48.905Z,64.7
2022-10-24T15:23:06.010Z,61.3
2022-10-24T15:24:23.114Z,58.8
2022-10-24T15:25:40.218Z,64.9
2022-10-24T15:26:57.322Z,65.7
2022-10-24T15:28:14.426Z,62.5
2022-10-24T15:29:31.530Z,60.5
2022-10-24T15:30:48.634Z,63.1
2022-10-24T15:32:05.738Z,60.2
2022-10-24T15:33:21.859Z,63.3
2022-10-24T15:34:38.963Z,61.7
2022-10-24T15:35:56.067Z,63.6
2022-10-24T15:37:13.171Z,64.9
2022-10-24T15:38:30.275Z,58.3
2022-10-24T15:39:47.379Z,59.4
2022-10-24T15:41:04.483Z,62.6
2022-10-24T15:42:21.587Z,62
2022-10-24T15:43:38.691Z,64.9
2022-10-24T15:44:55.795Z,58.8
2022-10-24T15:46:12.899Z,69.9
2022-10-24T15:47:30.003Z,63.8
2022-10-24T15:48:47.107Z,58.8
2022-10-24T15:50:03.228Z,62.6
2022-10-24T15:51:20.332Z,60.5
2022-10-24T15:52:37.436Z,61.7
2022-10-24T15:53:54.540Z,58.6
2022-10-24T15:55:11.644Z,65.7
2022-10-24T15:56:28.746Z,68.8
2022-10-24T15:57:45.850Z,62.1
2022-10-24T15:59:02.954Z,61.7
2022-10-24T16:00:20.058Z,66.8
2022-10-24T16:01:37.162Z,81.6
2022-10-24T16:02:54.267Z,75.7
2022-10-24T16:04:11.371Z,65.9
2022-10-24T16:05:28.475Z,61.3
2022-10-24T16:06:44.595Z,60.1
2022-10-24T16:08:01.700Z,61.7
2022-10-24T16:09:18.804Z,63.4
2022-10-24T16:10:35.908Z,61.2
2022-10-24T16:11:53.013Z,59.7
2022-10-24T16:13:10.117Z,67.1
2022-10-24T16:14:27.221Z,60.5
2022-10-24T16:15:44.324Z,65.4
2022-10-24T16:17:01.429Z,65.7
2022-10-24T16:18:18.533Z,66.3
2022-10-24T16:19:35.637Z,64.1
2022-10-24T16:20:52.741Z,56.3
2022-10-24T16:22:09.844Z,60.9
2022-10-24T16:23:25.964Z,62.1
2022-10-24T16:24:43.069Z,60.5
2022-10-24T16:26:00.173Z,60.2
2022-10-24T16:27:17.277Z,62.3
2022-10-24T16:28:34.381Z,60.7
2022-10-24T16:29:51.485Z,68.1
2022-10-24T16:31:08.589Z,68.8
2022-10-24T16:32:25.693Z,64.6
2022-10-24T16:33:42.797Z,62.8
2022-10-24T16:34:59.901Z,67.3
2022-10-24T16:36:17.005Z,64.9
2022-10-24T16:37:34.109Z,59.1
2022-10-24T16:38:51.213Z,61.3
2022-10-24T16:40:07.333Z,61.2
2022-10-24T16:41:24.438Z,64.2
2022-10-24T16:42:41.542Z,58.9
2022-10-24T16:43:58.646Z,61.2
2022-10-24T16:45:15.750Z,64.2
2022-10-24T16:46:32.854Z,61.8
2022-10-24T16:47:49.957Z,58
2022-10-24T16:49:07.061Z,61.5
2022-10-24T16:50:24.165Z,59.9
2022-10-24T16:51:41.269Z,61.7
2022-10-24T16:52:58.373Z,58.8
2022-10-24T16:54:15.477Z,62.8
2022-10-24T16:55:32.581Z,60.5
2022-10-24T16:56:48.701Z,61
2022-10-24T16:58:05.805Z,63.8
2022-10-24T16:59:22.908Z,61.3
2022-10-24T17:00:40.012Z,64.6
2022-10-24T17:01:57.116Z,59.7
2022-10-24T17:03:14.220Z,62.1
2022-10-24T17:04:31.324Z,57.6
2022-10-24T17:05:48.428Z,60.2
2022-10-24T17:07:05.532Z,58.6
2022-10-24T17:08:22.636Z,61
2022-10-24T17:09:39.739Z,63
2022-10-24T17:10:56.843Z,65.7